PRIVATE WETTERSTATION BILLIGHEIM-ALLFELD                       ZURCK
Wetterdaten: Dienstag, 07.02.2017
Datum Zeit Temp. A. Temp. A. min Temp. A. max Feuchte A. Luftdruck Regen Wind Richtung Richtung Sonnenschein ET Solar Taupunkt Windchill Windben Empfang
07.02.2017 00:00 2,1 C 2,1 C 2,2 C 89 % 1018,8 hPa 0,0 l/m 0,0 km/h (0 Bft) N 0 0 min 0,000 mm 0 W/m 0,5 C 2,1 C 0,0 km/h (0 Bft) 100 %
07.02.2017 00:10 2,1 C 2,1 C 2,1 C 90 % 1018,8 hPa 0,0 l/m 0,0 km/h (0 Bft) N 0 0 min 0,000 mm 0 W/m 0,6 C 2,1 C 0,0 km/h (0 Bft) 99 %
07.02.2017 00:20 2,1 C 2,1 C 2,1 C 90 % 1018,9 hPa 0,0 l/m 0,0 km/h (0 Bft) NO 45 0 min 0,000 mm 0 W/m 0,6 C 2,1 C 1,6 km/h (1 Bft) 100 %
07.02.2017 00:30 2,1 C 2,1 C 2,1 C 90 % 1018,9 hPa 0,0 l/m 0,0 km/h (0 Bft) N 0 0 min 0,000 mm 0 W/m 0,6 C 2,1 C 0,0 km/h (0 Bft) 100 %
07.02.2017 00:40 2,0 C 2,0 C 2,1 C 90 % 1019,0 hPa 0,0 l/m 0,0 km/h (0 Bft) N 0 0 min 0,000 mm 0 W/m 0,5 C 2,0 C 0,0 km/h (0 Bft) 89 %
07.02.2017 00:50 1,9 C 1,9 C 2,0 C 90 % 1018,9 hPa 0,0 l/m 0,0 km/h (0 Bft) N 0 0 min 0,000 mm 0 W/m 0,4 C 1,9 C 0,0 km/h (0 Bft) 100 %
07.02.2017 01:00 1,9 C 1,9 C 1,9 C 90 % 1018,8 hPa 0,0 l/m 0,0 km/h (0 Bft) N 0 0 min 0,000 mm 0 W/m 0,4 C 1,9 C 0,0 km/h (0 Bft) 100 %
07.02.2017 01:10 1,8 C 1,8 C 1,8 C 91 % 1018,8 hPa 0,0 l/m 0,0 km/h (0 Bft) N 0 0 min 0,000 mm 0 W/m 0,5 C 1,8 C 0,0 km/h (0 Bft) 99 %
07.02.2017 01:20 1,7 C 1,7 C 1,8 C 90 % 1018,8 hPa 0,0 l/m 0,0 km/h (0 Bft) N 0 0 min 0,000 mm 0 W/m 0,2 C 1,7 C 0,0 km/h (0 Bft) 100 %
07.02.2017 01:30 1,7 C 1,7 C 1,7 C 91 % 1018,8 hPa 0,0 l/m 0,0 km/h (0 Bft) N 0 0 min 0,000 mm 0 W/m 0,4 C 1,7 C 0,0 km/h (0 Bft) 100 %
07.02.2017 01:40 1,6 C 1,6 C 1,7 C 91 % 1018,8 hPa 0,0 l/m 0,0 km/h (0 Bft) N 0 0 min 0,000 mm 0 W/m 0,3 C 1,6 C 0,0 km/h (0 Bft) 100 %
07.02.2017 01:50 1,5 C 1,4 C 1,6 C 91 % 1018,9 hPa 0,0 l/m 0,0 km/h (0 Bft) N 0 0 min 0,000 mm 0 W/m 0,2 C 1,5 C 0,0 km/h (0 Bft) 100 %
07.02.2017 02:00 1,4 C 1,4 C 1,4 C 91 % 1018,8 hPa 0,0 l/m 0,0 km/h (0 Bft) N 0 0 min 0,000 mm 0 W/m 0,1 C 1,4 C 0,0 km/h (0 Bft) 100 %
07.02.2017 02:10 1,4 C 1,4 C 1,4 C 91 % 1018,8 hPa 0,0 l/m 0,0 km/h (0 Bft) N 0 0 min 0,000 mm 0 W/m 0,1 C 1,4 C 0,0 km/h (0 Bft) 100 %
07.02.2017 02:20 1,4 C 1,4 C 1,4 C 91 % 1018,8 hPa 0,0 l/m 0,0 km/h (0 Bft) N 0 0 min 0,000 mm 0 W/m 0,1 C 1,4 C 0,0 km/h (0 Bft) 100 %
07.02.2017 02:30 1,4 C 1,4 C 1,4 C 91 % 1018,8 hPa 0,0 l/m 0,0 km/h (0 Bft) N 0 0 min 0,000 mm 0 W/m 0,1 C 1,4 C 0,0 km/h (0 Bft) 100 %
07.02.2017 02:40 1,4 C 1,4 C 1,4 C 91 % 1018,8 hPa 0,0 l/m 0,0 km/h (0 Bft) N 0 0 min 0,000 mm 0 W/m 0,1 C 1,4 C 0,0 km/h (0 Bft) 100 %
07.02.2017 02:50 1,3 C 1,3 C 1,4 C 91 % 1018,6 hPa 0,0 l/m 0,0 km/h (0 Bft) N 0 0 min 0,000 mm 0 W/m -0,0 C 1,3 C 0,0 km/h (0 Bft) 100 %
07.02.2017 03:00 1,3 C 1,2 C 1,3 C 91 % 1018,5 hPa 0,0 l/m 0,0 km/h (0 Bft) N-NO 22 0 min 0,000 mm 0 W/m -0,0 C 1,3 C 6,4 km/h (2 Bft) 99 %
07.02.2017 03:10 1,2 C 1,2 C 1,3 C 91 % 1018,4 hPa 0,0 l/m 0,0 km/h (0 Bft) N 360 0 min 0,000 mm 0 W/m -0,1 C 1,2 C 3,2 km/h (1 Bft) 98 %
07.02.2017 03:20 1,1 C 1,1 C 1,2 C 92 % 1018,3 hPa 0,0 l/m 0,0 km/h (0 Bft) N 0 0 min 0,000 mm 0 W/m -0,1 C 1,1 C 0,0 km/h (0 Bft) 97 %
07.02.2017 03:30 1,0 C 1,0 C 1,1 C 91 % 1018,2 hPa 0,0 l/m 0,0 km/h (0 Bft) N 0 0 min 0,000 mm 0 W/m -0,3 C 1,0 C 0,0 km/h (0 Bft) 97 %
07.02.2017 03:40 0,9 C 0,9 C 1,0 C 91 % 1018,2 hPa 0,0 l/m 0,0 km/h (0 Bft) N 0 0 min 0,000 mm 0 W/m -0,4 C 0,9 C 0,0 km/h (0 Bft) 97 %
07.02.2017 03:50 0,9 C 0,9 C 0,9 C 92 % 1018,2 hPa 0,0 l/m 0,0 km/h (0 Bft) N 0 0 min 0,000 mm 0 W/m -0,2 C 0,9 C 0,0 km/h (0 Bft) 97 %
07.02.2017 04:00 0,8 C 0,8 C 0,9 C 92 % 1018,2 hPa 0,0 l/m 0,0 km/h (0 Bft) N 0 0 min 0,000 mm 0 W/m -0,3 C 0,8 C 0,0 km/h (0 Bft) 97 %
07.02.2017 04:10 0,8 C 0,8 C 0,8 C 92 % 1018,2 hPa 0,0 l/m 0,0 km/h (0 Bft) N 0 0 min 0,000 mm 0 W/m -0,3 C 0,8 C 0,0 km/h (0 Bft) 97 %
07.02.2017 04:20 0,8 C 0,8 C 0,8 C 92 % 1018,1 hPa 0,0 l/m 0,0 km/h (0 Bft) N 0 0 min 0,000 mm 0 W/m -0,3 C 0,8 C 0,0 km/h (0 Bft) 97 %
07.02.2017 04:30 0,7 C 0,7 C 0,8 C 92 % 1018,2 hPa 0,0 l/m 0,0 km/h (0 Bft) N 0 0 min 0,000 mm 0 W/m -0,4 C 0,7 C 0,0 km/h (0 Bft) 98 %
07.02.2017 04:40 0,6 C 0,6 C 0,7 C 92 % 1018,2 hPa 0,0 l/m 0,0 km/h (0 Bft) N 0 0 min 0,000 mm 0 W/m -0,5 C 0,6 C 0,0 km/h (0 Bft) 98 %
07.02.2017 04:50 0,6 C 0,6 C 0,6 C 92 % 1018,3 hPa 0,0 l/m 0,0 km/h (0 Bft) N 0 0 min 0,000 mm 0 W/m -0,5 C 0,6 C 0,0 km/h (0 Bft) 98 %
07.02.2017 05:00 0,6 C 0,6 C 0,6 C 92 % 1018,3 hPa 0,0 l/m 0,0 km/h (0 Bft) N 0 0 min 0,000 mm 0 W/m -0,5 C 0,6 C 0,0 km/h (0 Bft) 98 %
07.02.2017 05:10 0,6 C 0,6 C 0,6 C 92 % 1018,2 hPa 0,0 l/m 0,0 km/h (0 Bft) N 0 0 min 0,000 mm 0 W/m -0,5 C 0,6 C 0,0 km/h (0 Bft) 97 %
07.02.2017 05:20 0,6 C 0,6 C 0,6 C 92 % 1018,2 hPa 0,0 l/m 0,0 km/h (0 Bft) N 0 0 min 0,000 mm 0 W/m -0,5 C 0,6 C 0,0 km/h (0 Bft) 98 %
07.02.2017 05:30 0,6 C 0,6 C 0,6 C 92 % 1018,1 hPa 0,0 l/m 0,0 km/h (0 Bft) N 0 0 min 0,000 mm 0 W/m -0,5 C 0,6 C 0,0 km/h (0 Bft) 98 %
07.02.2017 05:40 0,6 C 0,6 C 0,6 C 92 % 1018,0 hPa 0,0 l/m 0,0 km/h (0 Bft) N 0 0 min 0,000 mm 0 W/m -0,5 C 0,6 C 0,0 km/h (0 Bft) 98 %
07.02.2017 05:50 0,6 C 0,6 C 0,6 C 92 % 1018,2 hPa 0,0 l/m 0,0 km/h (0 Bft) N 0 0 min 0,000 mm 0 W/m -0,5 C 0,6 C 0,0 km/h (0 Bft) 98 %
07.02.2017 06:00 0,6 C 0,6 C 0,6 C 92 % 1018,2 hPa 0,0 l/m 0,0 km/h (0 Bft) N 0 0 min 0,000 mm 0 W/m -0,5 C 0,6 C 0,0 km/h (0 Bft) 97 %
07.02.2017 06:10 0,6 C 0,6 C 0,6 C 92 % 1018,1 hPa 0,0 l/m 0,0 km/h (0 Bft) N 0 0 min 0,000 mm 0 W/m -0,5 C 0,6 C 0,0 km/h (0 Bft) 97 %
07.02.2017 06:20 0,6 C 0,6 C 0,6 C 92 % 1018,2 hPa 0,0 l/m 0,0 km/h (0 Bft) N 0 0 min 0,000 mm 0 W/m -0,5 C 0,6 C 0,0 km/h (0 Bft) 98 %
07.02.2017 06:30 0,7 C 0,6 C 0,7 C 92 % 1018,3 hPa 0,0 l/m 0,0 km/h (0 Bft) N 0 0 min 0,000 mm 0 W/m -0,4 C 0,7 C 0,0 km/h (0 Bft) 98 %
07.02.2017 06:40 0,7 C 0,7 C 0,7 C 92 % 1018,2 hPa 0,0 l/m 0,0 km/h (0 Bft) N 0 0 min 0,000 mm 0 W/m -0,4 C 0,7 C 0,0 km/h (0 Bft) 97 %
07.02.2017 06:50 0,7 C 0,7 C 0,7 C 92 % 1018,2 hPa 0,0 l/m 0,0 km/h (0 Bft) N 0 0 min 0,000 mm 0 W/m -0,4 C 0,7 C 0,0 km/h (0 Bft) 97 %
07.02.2017 07:00 0,6 C 0,6 C 0,7 C 92 % 1018,3 hPa 0,0 l/m 0,0 km/h (0 Bft) N 0 0 min 0,000 mm 0 W/m -0,5 C 0,6 C 0,0 km/h (0 Bft) 98 %
07.02.2017 07:10 0,6 C 0,6 C 0,6 C 92 % 1018,2 hPa 0,0 l/m 1,6 km/h (1 Bft) N-NO 22 0 min 0,000 mm 0 W/m -0,5 C 0,6 C 4,8 km/h (1 Bft) 98 %
07.02.2017 07:20 0,6 C 0,6 C 0,7 C 92 % 1018,2 hPa 0,0 l/m 1,6 km/h (1 Bft) N-NO 22 0 min 0,000 mm 0 W/m -0,5 C 0,6 C 4,8 km/h (1 Bft) 97 %
07.02.2017 07:30 0,6 C 0,6 C 0,7 C 92 % 1018,2 hPa 0,0 l/m 0,0 km/h (0 Bft) N 0 0 min 0,000 mm 0 W/m -0,5 C 0,6 C 0,0 km/h (0 Bft) 98 %
07.02.2017 07:40 0,5 C 0,5 C 0,6 C 92 % 1018,2 hPa 0,0 l/m 0,0 km/h (0 Bft) N 0 0 min 0,000 mm 0 W/m -0,6 C 0,5 C 0,0 km/h (0 Bft) 98 %
07.02.2017 07:50 0,4 C 0,4 C 0,5 C 92 % 1018,1 hPa 0,0 l/m 0,0 km/h (0 Bft) N 0 0 min 0,000 mm 5 W/m -0,7 C 0,4 C 0,0 km/h (0 Bft) 98 %
07.02.2017 08:00 0,4 C 0,4 C 0,4 C 92 % 1018,2 hPa 0,0 l/m 0,0 km/h (0 Bft) N 0 0 min 0,000 mm 14 W/m -0,7 C 0,4 C 0,0 km/h (0 Bft) 98 %
07.02.2017 08:10 0,5 C 0,4 C 0,5 C 92 % 1018,1 hPa 0,0 l/m 0,0 km/h (0 Bft) N 0 0 min 0,000 mm 21 W/m -0,6 C 0,5 C 0,0 km/h (0 Bft) 88 %
07.02.2017 08:20 0,6 C 0,5 C 0,6 C 92 % 1018,1 hPa 0,0 l/m 0,0 km/h (0 Bft) N 0 0 min 0,000 mm 37 W/m -0,5 C 0,6 C 0,0 km/h (0 Bft) 97 %
07.02.2017 08:30 0,7 C 0,6 C 0,7 C 92 % 1018,0 hPa 0,0 l/m 0,0 km/h (0 Bft) N 0 0 min 0,000 mm 53 W/m -0,4 C 0,7 C 0,0 km/h (0 Bft) 97 %
07.02.2017 08:40 0,8 C 0,7 C 0,8 C 92 % 1018,0 hPa 0,0 l/m 0,0 km/h (0 Bft) N 0 0 min 0,000 mm 77 W/m -0,3 C 0,8 C 0,0 km/h (0 Bft) 98 %
07.02.2017 08:50 0,9 C 0,8 C 0,9 C 92 % 1018,1 hPa 0,0 l/m 0,0 km/h (0 Bft) N 0 0 min 0,000 mm 128 W/m -0,2 C 0,9 C 0,0 km/h (0 Bft) 98 %
07.02.2017 09:00 1,3 C 0,9 C 1,3 C 92 % 1018,2 hPa 0,0 l/m 0,0 km/h (0 Bft) N-NO 22 10 min 0,025 mm 155 W/m 0,1 C 1,3 C 3,2 km/h (1 Bft) 97 %
07.02.2017 09:10 1,5 C 1,3 C 1,5 C 92 % 1018,0 hPa 0,0 l/m 0,0 km/h (0 Bft) N 0 10 min 0,000 mm 158 W/m 0,3 C 1,5 C 0,0 km/h (0 Bft) 98 %
07.02.2017 09:20 1,9 C 1,5 C 1,9 C 92 % 1017,9 hPa 0,0 l/m 0,0 km/h (0 Bft) N 0 10 min 0,000 mm 211 W/m 0,7 C 1,9 C 0,0 km/h (0 Bft) 98 %
07.02.2017 09:30 2,6 C 1,9 C 2,6 C 92 % 1017,9 hPa 0,0 l/m 0,0 km/h (0 Bft) N 0 10 min 0,000 mm 253 W/m 1,4 C 2,6 C 0,0 km/h (0 Bft) 98 %
07.02.2017 09:40 2,8 C 2,6 C 2,8 C 91 % 1017,8 hPa 0,0 l/m 0,0 km/h (0 Bft) N 0 10 min 0,000 mm 260 W/m 1,5 C 2,8 C 0,0 km/h (0 Bft) 97 %
07.02.2017 09:50 2,8 C 2,8 C 2,8 C 91 % 1017,8 hPa 0,0 l/m 0,0 km/h (0 Bft) N-NO 22 10 min 0,000 mm 190 W/m 1,5 C 2,8 C 4,8 km/h (1 Bft) 97 %
07.02.2017 10:00 2,9 C 2,8 C 2,9 C 91 % 1017,6 hPa 0,0 l/m 0,0 km/h (0 Bft) N-NO 22 10 min 0,051 mm 248 W/m 1,6 C 2,9 C 4,8 km/h (1 Bft) 98 %
07.02.2017 10:10 3,3 C 2,9 C 3,3 C 91 % 1017,6 hPa 0,0 l/m 0,0 km/h (0 Bft) N 0 10 min 0,000 mm 279 W/m 2,0 C 3,3 C 0,0 km/h (0 Bft) 97 %
07.02.2017 10:20 3,5 C 3,3 C 3,5 C 89 % 1017,8 hPa 0,0 l/m 0,0 km/h (0 Bft) N 0 10 min 0,000 mm 211 W/m 1,9 C 3,5 C 0,0 km/h (0 Bft) 98 %
07.02.2017 10:30 3,6 C 3,5 C 3,6 C 89 % 1017,6 hPa 0,0 l/m 0,0 km/h (0 Bft) N-NO 22 10 min 0,000 mm 295 W/m 2,0 C 3,6 C 3,2 km/h (1 Bft) 97 %
07.02.2017 10:40 3,8 C 3,6 C 3,8 C 88 % 1017,4 hPa 0,0 l/m 0,0 km/h (0 Bft) N 0 10 min 0,000 mm 239 W/m 2,0 C 3,8 C 0,0 km/h (0 Bft) 97 %
07.02.2017 10:50 3,9 C 3,7 C 3,9 C 88 % 1017,5 hPa 0,0 l/m 0,0 km/h (0 Bft) N-NO 22 10 min 0,000 mm 339 W/m 2,1 C 3,9 C 1,6 km/h (1 Bft) 97 %
07.02.2017 11:00 4,5 C 3,9 C 4,5 C 87 % 1017,5 hPa 0,0 l/m 0,0 km/h (0 Bft) N 0 10 min 0,076 mm 339 W/m 2,5 C 4,5 C 0,0 km/h (0 Bft) 97 %
07.02.2017 11:10 4,9 C 4,5 C 4,9 C 85 % 1017,5 hPa 0,0 l/m 0,0 km/h (0 Bft) N 0 10 min 0,000 mm 367 W/m 2,6 C 4,9 C 0,0 km/h (0 Bft) 98 %
07.02.2017 11:20 5,3 C 4,9 C 5,3 C 85 % 1017,5 hPa 0,0 l/m 1,6 km/h (1 Bft) N 360 10 min 0,000 mm 373 W/m 3,0 C 5,3 C 6,4 km/h (2 Bft) 97 %
07.02.2017 11:30 5,7 C 5,3 C 5,7 C 81 % 1017,5 hPa 0,0 l/m 0,0 km/h (0 Bft) N 360 10 min 0,000 mm 367 W/m 2,7 C 5,7 C 1,6 km/h (1 Bft) 98 %
07.02.2017 11:40 6,2 C 5,7 C 6,2 C 80 % 1017,3 hPa 0,0 l/m 0,0 km/h (0 Bft) N 0 10 min 0,000 mm 387 W/m 3,0 C 6,2 C 0,0 km/h (0 Bft) 98 %
07.02.2017 11:50 6,4 C 6,3 C 6,4 C 77 % 1017,1 hPa 0,0 l/m 0,0 km/h (0 Bft) N 0 10 min 0,000 mm 401 W/m 2,7 C 6,4 C 0,0 km/h (0 Bft) 98 %
07.02.2017 12:00 6,7 C 6,4 C 6,7 C 77 % 1017,1 hPa 0,0 l/m 1,6 km/h (1 Bft) NO 45 10 min 0,152 mm 418 W/m 3,0 C 6,7 C 8,0 km/h (2 Bft) 98 %
07.02.2017 12:10 7,2 C 6,7 C 7,2 C 72 % 1017,0 hPa 0,0 l/m 0,0 km/h (0 Bft) SW 225 10 min 0,000 mm 420 W/m 2,5 C 7,2 C 6,4 km/h (2 Bft) 97 %
07.02.2017 12:20 7,3 C 7,2 C 7,3 C 70 % 1017,0 hPa 0,0 l/m 1,6 km/h (1 Bft) O-SO 112 10 min 0,000 mm 471 W/m 2,2 C 7,3 C 8,0 km/h (2 Bft) 98 %
07.02.2017 12:30 7,1 C 7,1 C 7,3 C 69 % 1016,9 hPa 0,0 l/m 3,2 km/h (1 Bft) O-SO 112 10 min 0,000 mm 461 W/m 1,8 C 7,1 C 14,5 km/h (3 Bft) 97 %
07.02.2017 12:40 7,3 C 7,1 C 7,3 C 67 % 1016,8 hPa 0,0 l/m 1,6 km/h (1 Bft) O-NO 67 10 min 0,000 mm 490 W/m 1,6 C 7,3 C 8,0 km/h (2 Bft) 97 %
07.02.2017 12:50 7,6 C 7,3 C 7,6 C 66 % 1016,6 hPa 0,0 l/m 1,6 km/h (1 Bft) O-NO 67 10 min 0,000 mm 510 W/m 1,7 C 7,6 C 8,0 km/h (2 Bft) 98 %
07.02.2017 13:00 7,7 C 7,5 C 7,7 C 69 % 1016,5 hPa 0,0 l/m 1,6 km/h (1 Bft) O 90 10 min 0,178 mm 517 W/m 2,4 C 7,7 C 9,7 km/h (2 Bft) 99 %
07.02.2017 13:10 7,7 C 7,7 C 7,8 C 66 % 1016,5 hPa 0,0 l/m 4,8 km/h (1 Bft) S-SW 202 10 min 0,000 mm 445 W/m 1,8 C 7,7 C 12,9 km/h (3 Bft) 99 %
07.02.2017 13:20 7,7 C 7,6 C 7,7 C 67 % 1016,3 hPa 0,0 l/m 6,4 km/h (2 Bft) S-SW 202 10 min 0,000 mm 446 W/m 2,0 C 7,7 C 12,9 km/h (3 Bft) 98 %
07.02.2017 13:30 7,8 C 7,7 C 7,8 C 65 % 1016,3 hPa 0,0 l/m 1,6 km/h (1 Bft) S-SW 202 10 min 0,000 mm 420 W/m 1,6 C 7,8 C 8,0 km/h (2 Bft) 98 %
07.02.2017 13:40 7,6 C 7,6 C 7,8 C 65 % 1016,3 hPa 0,0 l/m 1,6 km/h (1 Bft) SO 135 10 min 0,000 mm 343 W/m 1,5 C 7,6 C 8,0 km/h (2 Bft) 97 %
07.02.2017 13:50 7,3 C 7,3 C 7,6 C 65 % 1016,2 hPa 0,0 l/m 0,0 km/h (0 Bft) SO 135 10 min 0,000 mm 290 W/m 1,2 C 7,3 C 4,8 km/h (1 Bft) 98 %
07.02.2017 14:00 7,1 C 7,1 C 7,3 C 66 % 1016,2 hPa 0,0 l/m 1,6 km/h (1 Bft) S-SW 202 10 min 0,127 mm 172 W/m 1,2 C 7,1 C 9,7 km/h (2 Bft) 98 %
07.02.2017 14:10 6,8 C 6,8 C 7,1 C 65 % 1016,1 hPa 0,0 l/m 1,6 km/h (1 Bft) SO 135 0 min 0,000 mm 151 W/m 0,7 C 6,8 C 6,4 km/h (2 Bft) 98 %
07.02.2017 14:20 6,7 C 6,7 C 6,8 C 66 % 1016,0 hPa 0,0 l/m 0,0 km/h (0 Bft) SO 135 0 min 0,000 mm 148 W/m 0,8 C 6,7 C 3,2 km/h (1 Bft) 98 %
07.02.2017 14:30 6,7 C 6,7 C 6,7 C 65 % 1016,0 hPa 0,0 l/m 0,0 km/h (0 Bft) SO 135 0 min 0,000 mm 118 W/m 0,6 C 6,7 C 3,2 km/h (1 Bft) 96 %
07.02.2017 14:40 6,6 C 6,6 C 6,7 C 66 % 1016,0 hPa 0,0 l/m 0,0 km/h (0 Bft) N 0 0 min 0,000 mm 100 W/m 0,7 C 6,6 C 0,0 km/h (0 Bft) 98 %
07.02.2017 14:50 6,6 C 6,6 C 6,6 C 66 % 1015,9 hPa 0,0 l/m 0,0 km/h (0 Bft) SO 135 0 min 0,000 mm 123 W/m 0,7 C 6,6 C 4,8 km/h (1 Bft) 97 %
07.02.2017 15:00 6,6 C 6,6 C 6,6 C 65 % 1015,9 hPa 0,0 l/m 0,0 km/h (0 Bft) O-SO 112 0 min 0,051 mm 135 W/m 0,5 C 6,6 C 4,8 km/h (1 Bft) 98 %
07.02.2017 15:10 6,6 C 6,6 C 6,6 C 66 % 1016,0 hPa 0,0 l/m 0,0 km/h (0 Bft) N 0 10 min 0,000 mm 155 W/m 0,7 C 6,6 C 0,0 km/h (0 Bft) 97 %
07.02.2017 15:20 6,7 C 6,6 C 6,7 C 64 % 1016,0 hPa 0,0 l/m 0,0 km/h (0 Bft) N 0 0 min 0,000 mm 151 W/m 0,4 C 6,7 C 0,0 km/h (0 Bft) 98 %
07.02.2017 15:30 6,8 C 6,7 C 6,8 C 65 % 1016,1 hPa 0,0 l/m 0,0 km/h (0 Bft) SO 135 0 min 0,000 mm 120 W/m 0,7 C 6,8 C 1,6 km/h (1 Bft) 98 %
07.02.2017 15:40 6,7 C 6,7 C 6,8 C 64 % 1015,9 hPa 0,0 l/m 0,0 km/h (0 Bft) O-SO 112 0 min 0,000 mm 90 W/m 0,4 C 6,7 C 6,4 km/h (2 Bft) 97 %
07.02.2017 15:50 6,7 C 6,7 C 6,7 C 66 % 1016,0 hPa 0,0 l/m 0,0 km/h (0 Bft) O-SO 112 0 min 0,000 mm 70 W/m 0,8 C 6,7 C 4,8 km/h (1 Bft) 98 %
07.02.2017 16:00 6,6 C 6,6 C 6,7 C 67 % 1015,9 hPa 0,0 l/m 0,0 km/h (0 Bft) O-SO 112 0 min 0,051 mm 62 W/m 0,9 C 6,6 C 1,6 km/h (1 Bft) 97 %
07.02.2017 16:10 6,6 C 6,6 C 6,6 C 66 % 1016,0 hPa 0,0 l/m 0,0 km/h (0 Bft) N 0 0 min 0,000 mm 62 W/m 0,7 C 6,6 C 0,0 km/h (0 Bft) 97 %
07.02.2017 16:20 6,4 C 6,4 C 6,6 C 67 % 1015,9 hPa 0,0 l/m 0,0 km/h (0 Bft) O 90 0 min 0,000 mm 49 W/m 0,7 C 6,4 C 1,6 km/h (1 Bft) 97 %
07.02.2017 16:30 6,3 C 6,3 C 6,6 C 68 % 1015,9 hPa 0,0 l/m 0,0 km/h (0 Bft) O 95 0 min 0,000 mm 33 W/m 0,8 C 6,3 C 0,0 km/h (0 Bft) 100 %
07.02.2017 16:40 6,2 C 6,2 C 6,3 C 69 % 1015,9 hPa 0,0 l/m 0,0 km/h (0 Bft) O 95 0 min 0,000 mm 32 W/m 0,9 C 6,2 C 1,6 km/h (1 Bft) 100 %
07.02.2017 16:50 6,1 C 6,1 C 6,2 C 72 % 1015,9 hPa 0,0 l/m 0,0 km/h (0 Bft) O 92 0 min 0,000 mm 25 W/m 1,4 C 6,1 C 0,0 km/h (0 Bft) 100 %
07.02.2017 17:00 5,9 C 5,9 C 6,1 C 72 % 1016,0 hPa 0,0 l/m 0,0 km/h (0 Bft) O 92 0 min 0,026 mm 19 W/m 1,2 C 5,9 C 1,6 km/h (1 Bft) 100 %
07.02.2017 17:10 5,8 C 5,8 C 5,9 C 72 % 1016,1 hPa 0,0 l/m 1,6 km/h (1 Bft) O-NO 73 0 min 0,000 mm 14 W/m 1,2 C 5,8 C 11,3 km/h (2 Bft) 100 %
07.02.2017 17:20 5,7 C 5,7 C 5,8 C 75 % 1016,2 hPa 0,0 l/m 1,6 km/h (1 Bft) NO 55 0 min 0,000 mm 5 W/m 1,6 C 5,7 C 6,4 km/h (2 Bft) 100 %
07.02.2017 17:30 5,4 C 5,4 C 5,7 C 77 % 1016,2 hPa 0,0 l/m 2,5 km/h (1 Bft) O-NO 68 0 min 0,000 mm 0 W/m 1,7 C 5,4 C 8,0 km/h (2 Bft) 100 %
07.02.2017 17:40 5,2 C 5,2 C 5,4 C 79 % 1016,3 hPa 0,0 l/m 2,2 km/h (1 Bft) NO 46 0 min 0,000 mm 0 W/m 1,9 C 5,2 C 6,4 km/h (2 Bft) 100 %
07.02.2017 17:50 5,1 C 5,1 C 5,2 C 80 % 1016,5 hPa 0,0 l/m 1,6 km/h (1 Bft) NO 56 0 min 0,000 mm 0 W/m 1,9 C 5,1 C 14,5 km/h (3 Bft) 100 %
07.02.2017 18:00 4,9 C 4,9 C 5,1 C 80 % 1016,7 hPa 0,0 l/m 0,1 km/h (0 Bft) O-NO 71 0 min 0,000 mm 0 W/m 1,7 C 4,9 C 3,2 km/h (1 Bft) 100 %
07.02.2017 18:10 4,8 C 4,8 C 4,9 C 81 % 1016,7 hPa 0,0 l/m 0,8 km/h (0 Bft) O 98 0 min 0,000 mm 0 W/m 1,8 C 4,8 C 6,4 km/h (2 Bft) 99 %
07.02.2017 18:20 4,7 C 4,7 C 4,8 C 81 % 1016,8 hPa 0,0 l/m 0,3 km/h (0 Bft) O 88 0 min 0,000 mm 0 W/m 1,7 C 4,7 C 4,8 km/h (1 Bft) 99 %
07.02.2017 18:30 4,6 C 4,6 C 4,7 C 82 % 1016,8 hPa 0,0 l/m 0,4 km/h (0 Bft) O 79 0 min 0,000 mm 0 W/m 1,8 C 4,6 C 6,4 km/h (2 Bft) 100 %
07.02.2017 18:40 4,5 C 4,5 C 4,6 C 82 % 1016,9 hPa 0,0 l/m 0,0 km/h (0 Bft) O 79 0 min 0,000 mm 0 W/m 1,7 C 4,5 C 0,0 km/h (0 Bft) 99 %
07.02.2017 18:50 4,4 C 4,4 C 4,5 C 82 % 1017,2 hPa 0,0 l/m 0,0 km/h (0 Bft) O 79 0 min 0,000 mm 0 W/m 1,6 C 4,4 C 0,0 km/h (0 Bft) 99 %
07.02.2017 19:00 4,4 C 4,4 C 4,4 C 82 % 1017,2 hPa 0,0 l/m 0,0 km/h (0 Bft) O-NO 76 0 min 0,000 mm 0 W/m 1,6 C 4,4 C 3,2 km/h (1 Bft) 100 %
07.02.2017 19:10 4,3 C 4,3 C 4,4 C 83 % 1017,1 hPa 0,0 l/m 0,8 km/h (0 Bft) O-NO 71 0 min 0,000 mm 0 W/m 1,7 C 4,3 C 4,8 km/h (1 Bft) 100 %
07.02.2017 19:20 4,3 C 4,3 C 4,3 C 84 % 1017,1 hPa 0,0 l/m 1,2 km/h (1 Bft) NO 49 0 min 0,000 mm 0 W/m 1,8 C 4,3 C 8,0 km/h (2 Bft) 100 %
07.02.2017 19:30 4,2 C 4,2 C 4,3 C 85 % 1017,2 hPa 0,0 l/m 0,2 km/h (0 Bft) NO 49 0 min 0,000 mm 0 W/m 1,9 C 4,2 C 3,2 km/h (1 Bft) 100 %
07.02.2017 19:40 4,1 C 4,1 C 4,2 C 85 % 1017,1 hPa 0,0 l/m 1,1 km/h (1 Bft) O-NO 62 0 min 0,000 mm 0 W/m 1,8 C 4,1 C 8,0 km/h (2 Bft) 99 %
07.02.2017 19:50 4,0 C 4,0 C 4,1 C 86 % 1017,0 hPa 0,0 l/m 0,2 km/h (0 Bft) NO 56 0 min 0,000 mm 0 W/m 1,9 C 4,0 C 3,2 km/h (1 Bft) 100 %
07.02.2017 20:00 3,9 C 3,9 C 4,0 C 86 % 1017,0 hPa 0,0 l/m 0,4 km/h (0 Bft) NO 55 0 min 0,000 mm 0 W/m 1,8 C 3,9 C 4,8 km/h (1 Bft) 100 %
07.02.2017 20:10 3,8 C 3,8 C 3,9 C 86 % 1017,1 hPa 0,0 l/m 0,9 km/h (0 Bft) NO 53 0 min 0,000 mm 0 W/m 1,7 C 3,8 C 6,4 km/h (2 Bft) 99 %
07.02.2017 20:20 3,6 C 3,6 C 3,8 C 87 % 1017,0 hPa 0,0 l/m 1,1 km/h (1 Bft) NO 47 0 min 0,000 mm 0 W/m 1,6 C 3,6 C 6,4 km/h (2 Bft) 99 %
07.02.2017 20:30 3,4 C 3,4 C 3,6 C 87 % 1016,9 hPa 0,0 l/m 1,5 km/h (1 Bft) O-SO 110 0 min 0,000 mm 0 W/m 1,4 C 3,4 C 6,4 km/h (2 Bft) 100 %
07.02.2017 20:40 3,3 C 3,3 C 3,4 C 88 % 1016,9 hPa 0,0 l/m 1,5 km/h (1 Bft) NO 51 0 min 0,000 mm 0 W/m 1,5 C 3,3 C 8,0 km/h (2 Bft) 91 %
07.02.2017 20:50 3,2 C 3,2 C 3,3 C 88 % 1017,1 hPa 0,0 l/m 0,4 km/h (0 Bft) NO 40 0 min 0,000 mm 0 W/m 1,4 C 3,2 C 3,2 km/h (1 Bft) 99 %
07.02.2017 21:00 3,2 C 3,2 C 3,2 C 88 % 1017,0 hPa 0,0 l/m 0,3 km/h (0 Bft) NO 39 0 min 0,000 mm 0 W/m 1,4 C 3,2 C 4,8 km/h (1 Bft) 99 %
07.02.2017 21:10 3,0 C 3,0 C 3,2 C 88 % 1016,9 hPa 0,0 l/m 0,0 km/h (0 Bft) NO 45 0 min 0,000 mm 0 W/m 1,2 C 3,0 C 9,7 km/h (2 Bft) 97 %
07.02.2017 21:20 2,9 C 2,9 C 3,0 C 89 % 1016,9 hPa 0,0 l/m 0,0 km/h (0 Bft) O-NO 67 0 min 0,000 mm 0 W/m 1,3 C 2,9 C 1,6 km/h (1 Bft) 97 %
07.02.2017 21:30 2,9 C 2,9 C 2,9 C 89 % 1017,0 hPa 0,0 l/m 0,0 km/h (0 Bft) N 0 0 min 0,000 mm 0 W/m 1,3 C 2,9 C 0,0 km/h (0 Bft) 98 %
07.02.2017 21:40 2,9 C 2,9 C 2,9 C 90 % 1017,0 hPa 0,0 l/m 0,0 km/h (0 Bft) O-NO 67 0 min 0,000 mm 0 W/m 1,4 C 2,9 C 6,4 km/h (2 Bft) 99 %
07.02.2017 21:50 2,9 C 2,9 C 2,9 C 90 % 1017,1 hPa 0,0 l/m 0,0 km/h (0 Bft) O-SO 112 0 min 0,000 mm 0 W/m 1,4 C 2,9 C 6,4 km/h (2 Bft) 100 %
07.02.2017 22:00 2,9 C 2,9 C 2,9 C 90 % 1017,3 hPa 0,0 l/m 0,0 km/h (0 Bft) O-SO 112 0 min 0,000 mm 0 W/m 1,4 C 2,9 C 1,6 km/h (1 Bft) 100 %
07.02.2017 22:10 2,9 C 2,9 C 2,9 C 90 % 1017,4 hPa 0,0 l/m 0,0 km/h (0 Bft) O-SO 112 0 min 0,000 mm 0 W/m 1,4 C 2,9 C 3,2 km/h (1 Bft) 100 %
07.02.2017 22:20 2,9 C 2,9 C 2,9 C 90 % 1017,2 hPa 0,0 l/m 1,6 km/h (1 Bft) O-NO 67 0 min 0,000 mm 0 W/m 1,4 C 2,9 C 6,4 km/h (2 Bft) 100 %
07.02.2017 22:30 2,9 C 2,9 C 2,9 C 90 % 1017,2 hPa 0,0 l/m 1,6 km/h (1 Bft) NO 45 0 min 0,000 mm 0 W/m 1,4 C 2,9 C 6,4 km/h (2 Bft) 100 %
07.02.2017 22:40 2,9 C 2,9 C 2,9 C 90 % 1017,1 hPa 0,0 l/m 1,6 km/h (1 Bft) O-NO 67 0 min 0,000 mm 0 W/m 1,4 C 2,9 C 8,0 km/h (2 Bft) 100 %
07.02.2017 22:50 2,8 C 2,8 C 2,9 C 90 % 1017,1 hPa 0,0 l/m 1,6 km/h (1 Bft) NO 45 0 min 0,000 mm 0 W/m 1,3 C 2,8 C 11,3 km/h (2 Bft) 100 %
07.02.2017 23:00 2,8 C 2,8 C 2,9 C 90 % 1017,1 hPa 0,0 l/m 3,2 km/h (1 Bft) O-NO 67 0 min 0,000 mm 0 W/m 1,3 C 2,8 C 11,3 km/h (2 Bft) 100 %
07.02.2017 23:10 2,8 C 2,8 C 2,8 C 90 % 1017,1 hPa 0,0 l/m 1,6 km/h (1 Bft) O 90 0 min 0,000 mm 0 W/m 1,3 C 2,8 C 9,7 km/h (2 Bft) 100 %
07.02.2017 23:20 2,8 C 2,8 C 2,8 C 90 % 1017,2 hPa 0,0 l/m 1,6 km/h (1 Bft) O-NO 67 0 min 0,000 mm 0 W/m 1,3 C 2,8 C 4,8 km/h (1 Bft) 100 %
07.02.2017 23:30 2,8 C 2,7 C 2,8 C 90 % 1017,3 hPa 0,0 l/m 0,0 km/h (0 Bft) O 90 0 min 0,000 mm 0 W/m 1,3 C 2,8 C 9,7 km/h (2 Bft) 100 %
07.02.2017 23:40 2,8 C 2,7 C 2,8 C 90 % 1017,3 hPa 0,0 l/m 1,6 km/h (1 Bft) O-SO 112 0 min 0,000 mm 0 W/m 1,3 C 2,8 C 8,0 km/h (2 Bft) 100 %
07.02.2017 23:50 2,8 C 2,7 C 2,8 C 90 % 1017,2 hPa 0,0 l/m 1,6 km/h (1 Bft) O 90 0 min 0,000 mm 0 W/m 1,3 C 2,8 C 8,0 km/h (2 Bft) 100 %
_ Min-Zeit 07:50 07:50 08:00 15:20 14:50 - 00:00 - - - - - 07:50 07:50 00:00 08:10
Minimum _ 0,4 C 0,4 C 0,4 C 64 % 1015,9 hPa - 0,0 km/h (0 Bft) - - - - - -0,7 C 0,4 C 0,0 km/h (0 Bft) 88 %
_ Max-Zeit 13:10 13:10 13:10 03:20 00:40 00:00 13:20 - - 09:00 13:00 13:00 11:40 13:30 12:30 00:00
Maximum _ 7,8 C 7,7 C 7,8 C 92 % 1019,0 hPa 0,0 l/m 6,4 km/h
S-SW (2 Bft)
- - 10 min 0,178 mm 517 W/m 3,0 C 7,8 C 14,5 km/h
O-SO (3 Bft)
100 %
Durchschnitt _ 3,4 C 3,3 C 3,5 C 84 % 1017,4 hPa #0,0 l/m 0,5 km/h (0 Bft) NO - #5:20 h #0,737 mm 215 W/m 0,9 C 3,4 C 3,2 km/h (1 Bft) 98 %
PRIVATE WETTERSTATION BILLIGHEIM-ALLFELD - www.neckar-odenwald-wetter.de - Holger Sonntag